DAL1348 KCLE-KSYR
Flight info
| Callsign | DAL1348 |
|---|---|
| Flight time | 0h 50m |
| Altitude | 33000 |
| Route | PFLYD1 DUUKR DKK |
| Aircraft | A21N/M-SADE2E3GHIJ4J7M3P2RWXYZ/LB1D1 |
Departure
| Time | 2026-04-24 01:34 |
|---|---|
| Airport | Cleveland Hopkins International Airport (KCLE) |
Arrival
| Time | 2026-04-24 02:24 |
|---|---|
| Airport | Syracuse Hancock International Airport (KSYR) |
| Time | Latitude | Longitude | Altitude | Speed | Heading |
|---|---|---|---|---|---|
| 2026-04-24 01:15 | 41.41090 | -81.84039 | 764 ft | 0 kts | 11° |
| 2026-04-24 01:23 | 41.41086 | -81.84040 | 766 ft | 3 kts | 11° |
| 2026-04-24 01:23 | 41.41061 | -81.84043 | 766 ft | 4 kts | 349° |
| 2026-04-24 01:23 | 41.41041 | -81.84030 | 766 ft | 4 kts | 300° |
| 2026-04-24 01:24 | 41.41038 | -81.84011 | 766 ft | 1 kts | 251° |
| 2026-04-24 01:24 | 41.41039 | -81.84007 | 766 ft | 0 kts | 251° |
| 2026-04-24 01:27 | 41.41039 | -81.84008 | 766 ft | 1 kts | 251° |
| 2026-04-24 01:28 | 41.41033 | -81.84044 | 764 ft | 8 kts | 268° |
| 2026-04-24 01:28 | 41.41051 | -81.84144 | 764 ft | 14 kts | 280° |
| 2026-04-24 01:28 | 41.41060 | -81.84280 | 764 ft | 16 kts | 270° |
| 2026-04-24 01:28 | 41.41118 | -81.84381 | 764 ft | 18 kts | 1° |
| 2026-04-24 01:29 | 41.41229 | -81.84350 | 766 ft | 16 kts | 49° |
| 2026-04-24 01:29 | 41.41305 | -81.84227 | 766 ft | 18 kts | 50° |
| 2026-04-24 01:29 | 41.41377 | -81.84115 | 766 ft | 9 kts | 40° |
| 2026-04-24 01:29 | 41.41399 | -81.84103 | 766 ft | 4 kts | 7° |
| 2026-04-24 01:30 | 41.41433 | -81.84116 | 763 ft | 6 kts | 326° |
| 2026-04-24 01:30 | 41.41447 | -81.84130 | 763 ft | 0 kts | 316° |
| 2026-04-24 01:32 | 41.41456 | -81.84140 | 765 ft | 4 kts | 317° |
| 2026-04-24 01:32 | 41.41501 | -81.84195 | 765 ft | 13 kts | 295° |
| 2026-04-24 01:32 | 41.41475 | -81.84295 | 764 ft | 5 kts | 233° |
| 2026-04-24 01:32 | 41.41474 | -81.84299 | 764 ft | 0 kts | 234° |
| 2026-04-24 01:33 | 41.41473 | -81.84299 | 762 ft | 0 kts | 234° |
| 2026-04-24 01:33 | 41.41398 | -81.84417 | 763 ft | 51 kts | 229° |
| 2026-04-24 01:34 | 41.41003 | -81.85038 | 764 ft | 121 kts | 229° |
| 2026-04-24 01:34 | 41.40346 | -81.86079 | 775 ft | 168 kts | 229° |
| 2026-04-24 01:34 | 41.39631 | -81.87246 | 1434 ft | 161 kts | 228° |
| 2026-04-24 01:34 | 41.38956 | -81.88443 | 2104 ft | 164 kts | 238° |
| 2026-04-24 01:35 | 41.38702 | -81.89994 | 2550 ft | 185 kts | 272° |
| 2026-04-24 01:35 | 41.38981 | -81.91766 | 2997 ft | 203 kts | 279° |
| 2026-04-24 01:35 | 41.39258 | -81.93707 | 3492 ft | 225 kts | 278° |
| 2026-04-24 01:35 | 41.39546 | -81.95869 | 4042 ft | 248 kts | 278° |
| 2026-04-24 01:36 | 41.39852 | -81.98184 | 4834 ft | 258 kts | 278° |
| 2026-04-24 01:36 | 41.40165 | -82.00556 | 5493 ft | 262 kts | 278° |
| 2026-04-24 01:36 | 41.40472 | -82.02953 | 5915 ft | 263 kts | 278° |
| 2026-04-24 01:36 | 41.40775 | -82.05353 | 6022 ft | 263 kts | 278° |
| 2026-04-24 01:37 | 41.41079 | -82.07762 | 6042 ft | 263 kts | 278° |
| 2026-04-24 01:37 | 41.41392 | -82.10164 | 6073 ft | 263 kts | 281° |
| 2026-04-24 01:37 | 41.42141 | -82.12393 | 6728 ft | 270 kts | 304° |
| 2026-04-24 01:37 | 41.43531 | -82.14103 | 7618 ft | 278 kts | 327° |
| 2026-04-24 01:38 | 41.45368 | -82.14930 | 8532 ft | 285 kts | 352° |
| 2026-04-24 01:38 | 41.47346 | -82.14665 | 9449 ft | 291 kts | 17° |
| 2026-04-24 01:38 | 41.49099 | -82.13295 | 10264 ft | 299 kts | 40° |
| 2026-04-24 01:38 | 41.50556 | -82.11200 | 10735 ft | 318 kts | 49° |
| 2026-04-24 01:39 | 41.52020 | -82.08882 | 11238 ft | 332 kts | 49° |
| 2026-04-24 01:39 | 41.53515 | -82.06550 | 11985 ft | 338 kts | 49° |
| 2026-04-24 01:39 | 41.55065 | -82.04177 | 12831 ft | 341 kts | 48° |
| 2026-04-24 01:39 | 41.56645 | -82.01790 | 13683 ft | 345 kts | 47° |
| 2026-04-24 01:40 | 41.58246 | -81.99386 | 14438 ft | 349 kts | 47° |
| 2026-04-24 01:40 | 41.59870 | -81.96951 | 15164 ft | 353 kts | 47° |
| 2026-04-24 01:40 | 41.61448 | -81.94406 | 15863 ft | 359 kts | 56° |
| 2026-04-24 01:40 | 41.62464 | -81.91343 | 16537 ft | 366 kts | 76° |
| 2026-04-24 01:41 | 41.62786 | -81.87946 | 17227 ft | 372 kts | 86° |
| 2026-04-24 01:41 | 41.62925 | -81.84472 | 17898 ft | 377 kts | 87° |
| 2026-04-24 01:41 | 41.63068 | -81.80953 | 18511 ft | 383 kts | 86° |
| 2026-04-24 01:41 | 41.63239 | -81.77370 | 19098 ft | 388 kts | 85° |
| 2026-04-24 01:42 | 41.63432 | -81.73759 | 19706 ft | 392 kts | 85° |
| 2026-04-24 01:42 | 41.63638 | -81.70111 | 20293 ft | 396 kts | 85° |
| 2026-04-24 01:42 | 41.63847 | -81.66425 | 20872 ft | 400 kts | 85° |
| 2026-04-24 01:42 | 41.64057 | -81.62687 | 21459 ft | 405 kts | 85° |
| 2026-04-24 01:43 | 41.64263 | -81.58920 | 22029 ft | 409 kts | 84° |
| 2026-04-24 01:43 | 41.64496 | -81.55114 | 22611 ft | 413 kts | 81° |
| 2026-04-24 01:43 | 41.65125 | -81.51369 | 23157 ft | 414 kts | 67° |
| 2026-04-24 01:43 | 41.66421 | -81.47944 | 23679 ft | 414 kts | 56° |
| 2026-04-24 01:44 | 41.67938 | -81.44655 | 24158 ft | 417 kts | 55° |
| 2026-04-24 01:44 | 41.69463 | -81.41338 | 24637 ft | 420 kts | 56° |
| 2026-04-24 01:44 | 41.70963 | -81.37957 | 25109 ft | 424 kts | 56° |
| 2026-04-24 01:44 | 41.72444 | -81.34534 | 25573 ft | 427 kts | 57° |
| 2026-04-24 01:45 | 41.73928 | -81.31087 | 26030 ft | 430 kts | 57° |
| 2026-04-24 01:45 | 41.75431 | -81.27600 | 26485 ft | 433 kts | 56° |
| 2026-04-24 01:45 | 41.76917 | -81.24145 | 26931 ft | 435 kts | 56° |
| 2026-04-24 01:45 | 41.78447 | -81.20566 | 27383 ft | 438 kts | 56° |
| 2026-04-24 01:46 | 41.79946 | -81.17060 | 27800 ft | 441 kts | 56° |
| 2026-04-24 01:46 | 41.81474 | -81.13486 | 28217 ft | 444 kts | 56° |
| 2026-04-24 01:46 | 41.83014 | -81.09873 | 28622 ft | 447 kts | 56° |
| 2026-04-24 01:46 | 41.84561 | -81.06246 | 29032 ft | 449 kts | 56° |
| 2026-04-24 01:47 | 41.86111 | -81.02601 | 29428 ft | 452 kts | 56° |
| 2026-04-24 01:47 | 41.87678 | -80.98922 | 29826 ft | 455 kts | 56° |
| 2026-04-24 01:47 | 41.89249 | -80.95230 | 30165 ft | 457 kts | 56° |
| 2026-04-24 01:47 | 41.90824 | -80.91506 | 30469 ft | 460 kts | 56° |
| 2026-04-24 01:48 | 41.92406 | -80.87760 | 30781 ft | 462 kts | 56° |
| 2026-04-24 01:48 | 41.93989 | -80.84008 | 31161 ft | 462 kts | 56° |
| 2026-04-24 01:48 | 41.95576 | -80.80256 | 31542 ft | 462 kts | 56° |
| 2026-04-24 01:48 | 41.97160 | -80.76500 | 31921 ft | 462 kts | 56° |
| 2026-04-24 01:49 | 41.98733 | -80.72752 | 32291 ft | 461 kts | 56° |
| 2026-04-24 01:49 | 42.00240 | -80.68924 | 32650 ft | 463 kts | 60° |
| 2026-04-24 01:49 | 42.01626 | -80.65021 | 32938 ft | 464 kts | 60° |
| 2026-04-24 01:50 | 42.04357 | -80.57255 | 32986 ft | 461 kts | 60° |
| 2026-04-24 01:50 | 42.07097 | -80.49458 | 32970 ft | 461 kts | 60° |
| 2026-04-24 01:51 | 42.09833 | -80.41665 | 32963 ft | 460 kts | 60° |
| 2026-04-24 01:51 | 42.12549 | -80.33851 | 32961 ft | 461 kts | 60° |
| 2026-04-24 01:52 | 42.15269 | -80.26037 | 32957 ft | 460 kts | 60° |
| 2026-04-24 01:52 | 42.17986 | -80.18239 | 32960 ft | 460 kts | 60° |
| 2026-04-24 01:53 | 42.20701 | -80.10432 | 32971 ft | 458 kts | 59° |
| 2026-04-24 01:53 | 42.23396 | -80.02645 | 32952 ft | 458 kts | 60° |
| 2026-04-24 01:54 | 42.26071 | -79.94908 | 32971 ft | 458 kts | 60° |
| 2026-04-24 01:54 | 42.28774 | -79.87063 | 32970 ft | 458 kts | 60° |
| 2026-04-24 01:55 | 42.31433 | -79.79316 | 32982 ft | 458 kts | 60° |
| 2026-04-24 01:55 | 42.34100 | -79.71512 | 32972 ft | 457 kts | 60° |
| 2026-04-24 01:56 | 42.36746 | -79.63702 | 32965 ft | 457 kts | 60° |
| 2026-04-24 01:56 | 42.39395 | -79.55895 | 32976 ft | 457 kts | 60° |
| 2026-04-24 01:57 | 42.42050 | -79.48080 | 32974 ft | 457 kts | 60° |
| 2026-04-24 01:57 | 42.44699 | -79.40261 | 32992 ft | 457 kts | 59° |
| 2026-04-24 01:58 | 42.47336 | -79.32448 | 32984 ft | 456 kts | 60° |
| 2026-04-24 01:58 | 42.49711 | -79.24440 | 32983 ft | 462 kts | 68° |
| 2026-04-24 01:59 | 42.51574 | -79.16093 | 32999 ft | 464 kts | 68° |
| 2026-04-24 01:59 | 42.53439 | -79.07711 | 32981 ft | 464 kts | 68° |
| 2026-04-24 02:00 | 42.55312 | -78.99348 | 32979 ft | 464 kts | 68° |
| 2026-04-24 02:00 | 42.57174 | -78.90965 | 32982 ft | 464 kts | 68° |
| 2026-04-24 02:01 | 42.59013 | -78.82642 | 32983 ft | 463 kts | 68° |
| 2026-04-24 02:01 | 42.60858 | -78.74260 | 32982 ft | 463 kts | 68° |
| 2026-04-24 02:02 | 42.62691 | -78.65892 | 33008 ft | 462 kts | 68° |
| 2026-04-24 02:02 | 42.64515 | -78.57538 | 32994 ft | 460 kts | 68° |
| 2026-04-24 02:02 | 42.65415 | -78.53399 | 32395 ft | 454 kts | 68° |
| 2026-04-24 02:03 | 42.67206 | -78.45149 | 30711 ft | 454 kts | 68° |
| 2026-04-24 02:03 | 42.68093 | -78.41047 | 30163 ft | 449 kts | 68° |
| 2026-04-24 02:03 | 42.68969 | -78.36989 | 29534 ft | 445 kts | 68° |
| 2026-04-24 02:04 | 42.69833 | -78.32977 | 28917 ft | 440 kts | 68° |
| 2026-04-24 02:04 | 42.70687 | -78.29003 | 28352 ft | 435 kts | 68° |
| 2026-04-24 02:04 | 42.71530 | -78.25077 | 27806 ft | 429 kts | 68° |
| 2026-04-24 02:04 | 42.72359 | -78.21208 | 27288 ft | 424 kts | 68° |
| 2026-04-24 02:05 | 42.73167 | -78.17429 | 26759 ft | 420 kts | 68° |
| 2026-04-24 02:05 | 42.73979 | -78.13631 | 26208 ft | 416 kts | 68° |
| 2026-04-24 02:05 | 42.74779 | -78.09884 | 25700 ft | 412 kts | 68° |
| 2026-04-24 02:05 | 42.75567 | -78.06160 | 25207 ft | 408 kts | 68° |
| 2026-04-24 02:06 | 42.76344 | -78.02463 | 24687 ft | 404 kts | 68° |
| 2026-04-24 02:06 | 42.77116 | -77.98799 | 24162 ft | 402 kts | 68° |
| 2026-04-24 02:06 | 42.77886 | -77.95157 | 23670 ft | 399 kts | 68° |
| 2026-04-24 02:06 | 42.78652 | -77.91537 | 23085 ft | 397 kts | 67° |
| 2026-04-24 02:07 | 42.79408 | -77.87945 | 22533 ft | 394 kts | 67° |
| 2026-04-24 02:07 | 42.80159 | -77.84372 | 21980 ft | 390 kts | 67° |
| 2026-04-24 02:07 | 42.80904 | -77.80837 | 21450 ft | 387 kts | 67° |
| 2026-04-24 02:07 | 42.81637 | -77.77333 | 20933 ft | 384 kts | 67° |
| 2026-04-24 02:08 | 42.82369 | -77.73849 | 20354 ft | 382 kts | 67° |
| 2026-04-24 02:08 | 42.83099 | -77.70370 | 19722 ft | 383 kts | 68° |
| 2026-04-24 02:08 | 42.83830 | -77.66871 | 19072 ft | 384 kts | 68° |
| 2026-04-24 02:08 | 42.84560 | -77.63368 | 18428 ft | 386 kts | 68° |
| 2026-04-24 02:09 | 42.85292 | -77.59850 | 17697 ft | 386 kts | 68° |
| 2026-04-24 02:09 | 42.86027 | -77.56324 | 16989 ft | 387 kts | 67° |
| 2026-04-24 02:09 | 42.86762 | -77.52802 | 16282 ft | 386 kts | 67° |
| 2026-04-24 02:09 | 42.87494 | -77.49283 | 15579 ft | 386 kts | 67° |
| 2026-04-24 02:10 | 42.88215 | -77.45809 | 14898 ft | 385 kts | 67° |
| 2026-04-24 02:10 | 42.88937 | -77.42311 | 14240 ft | 383 kts | 67° |
| 2026-04-24 02:10 | 42.89658 | -77.38813 | 13557 ft | 382 kts | 67° |
| 2026-04-24 02:10 | 42.90374 | -77.35341 | 12823 ft | 380 kts | 67° |
| 2026-04-24 02:11 | 42.91086 | -77.31876 | 12114 ft | 378 kts | 68° |
| 2026-04-24 02:11 | 42.91790 | -77.28437 | 11415 ft | 376 kts | 68° |
| 2026-04-24 02:11 | 42.92487 | -77.24994 | 10726 ft | 374 kts | 68° |
| 2026-04-24 02:11 | 42.93179 | -77.21579 | 10088 ft | 373 kts | 68° |
| 2026-04-24 02:12 | 42.93865 | -77.18193 | 9463 ft | 362 kts | 68° |
| 2026-04-24 02:12 | 42.94507 | -77.15003 | 9305 ft | 335 kts | 68° |
| 2026-04-24 02:12 | 42.95109 | -77.12054 | 9208 ft | 312 kts | 67° |
| 2026-04-24 02:12 | 42.95691 | -77.09225 | 9050 ft | 308 kts | 67° |
| 2026-04-24 02:13 | 42.96268 | -77.06419 | 8843 ft | 307 kts | 68° |
| 2026-04-24 02:13 | 42.96839 | -77.03618 | 8598 ft | 305 kts | 68° |
| 2026-04-24 02:13 | 42.97405 | -77.00835 | 8350 ft | 303 kts | 68° |
| 2026-04-24 02:13 | 42.97963 | -76.98063 | 8093 ft | 302 kts | 69° |
| 2026-04-24 02:14 | 42.98513 | -76.95308 | 7842 ft | 300 kts | 69° |
| 2026-04-24 02:14 | 42.99057 | -76.92581 | 7595 ft | 297 kts | 69° |
| 2026-04-24 02:14 | 42.99602 | -76.89862 | 7349 ft | 296 kts | 70° |
| 2026-04-24 02:14 | 43.00146 | -76.87158 | 7097 ft | 294 kts | 70° |
| 2026-04-24 02:15 | 43.00684 | -76.84470 | 6862 ft | 293 kts | 70° |
| 2026-04-24 02:15 | 43.01217 | -76.81801 | 6623 ft | 290 kts | 70° |
| 2026-04-24 02:15 | 43.01748 | -76.79151 | 6377 ft | 288 kts | 70° |
| 2026-04-24 02:15 | 43.02275 | -76.76525 | 6119 ft | 286 kts | 70° |
| 2026-04-24 02:16 | 43.02799 | -76.73913 | 5868 ft | 284 kts | 70° |
| 2026-04-24 02:16 | 43.03318 | -76.71318 | 5644 ft | 282 kts | 70° |
| 2026-04-24 02:16 | 43.03827 | -76.68777 | 5438 ft | 280 kts | 71° |
| 2026-04-24 02:16 | 43.04337 | -76.66217 | 5232 ft | 278 kts | 71° |
| 2026-04-24 02:17 | 43.04836 | -76.63680 | 5038 ft | 276 kts | 71° |
| 2026-04-24 02:17 | 43.05336 | -76.61150 | 4840 ft | 273 kts | 71° |
| 2026-04-24 02:17 | 43.05827 | -76.58654 | 4638 ft | 272 kts | 71° |
| 2026-04-24 02:17 | 43.06317 | -76.56165 | 4429 ft | 270 kts | 71° |
| 2026-04-24 02:18 | 43.06640 | -76.54526 | 4290 ft | 269 kts | 71° |
| 2026-04-24 02:18 | 43.07278 | -76.51286 | 3898 ft | 257 kts | 71° |
| 2026-04-24 02:18 | 43.07581 | -76.49740 | 3719 ft | 253 kts | 71° |
| 2026-04-24 02:18 | 43.08036 | -76.47437 | 3419 ft | 247 kts | 71° |
| 2026-04-24 02:19 | 43.08476 | -76.45203 | 3194 ft | 237 kts | 71° |
| 2026-04-24 02:19 | 43.08886 | -76.43105 | 3157 ft | 219 kts | 71° |
| 2026-04-24 02:19 | 43.09253 | -76.41224 | 3205 ft | 193 kts | 70° |
| 2026-04-24 02:19 | 43.09616 | -76.39393 | 3228 ft | 202 kts | 70° |
| 2026-04-24 02:20 | 43.09946 | -76.37512 | 3218 ft | 205 kts | 76° |
| 2026-04-24 02:20 | 43.10039 | -76.35546 | 3210 ft | 207 kts | 83° |
| 2026-04-24 02:20 | 43.10101 | -76.33584 | 3207 ft | 207 kts | 83° |
| 2026-04-24 02:20 | 43.10167 | -76.31621 | 3145 ft | 205 kts | 83° |
| 2026-04-24 02:21 | 43.10242 | -76.29810 | 2974 ft | 179 kts | 82° |
| 2026-04-24 02:21 | 43.10298 | -76.28213 | 2730 ft | 158 kts | 82° |
| 2026-04-24 02:21 | 43.10345 | -76.26805 | 2479 ft | 144 kts | 81° |
| 2026-04-24 02:21 | 43.10391 | -76.25449 | 2296 ft | 142 kts | 81° |
| 2026-04-24 02:22 | 43.10436 | -76.24096 | 2112 ft | 142 kts | 82° |
| 2026-04-24 02:22 | 43.10482 | -76.22752 | 1927 ft | 141 kts | 82° |
| 2026-04-24 02:22 | 43.10529 | -76.21419 | 1739 ft | 140 kts | 82° |
| 2026-04-24 02:22 | 43.10584 | -76.20090 | 1531 ft | 139 kts | 82° |
| 2026-04-24 02:23 | 43.10647 | -76.18782 | 1333 ft | 138 kts | 83° |
| 2026-04-24 02:23 | 43.10693 | -76.17477 | 1129 ft | 136 kts | 86° |
| 2026-04-24 02:23 | 43.10715 | -76.16192 | 918 ft | 134 kts | 86° |
| 2026-04-24 02:23 | 43.10756 | -76.14932 | 749 ft | 132 kts | 86° |
| 2026-04-24 02:24 | 43.10791 | -76.13678 | 602 ft | 131 kts | 87° |
| 2026-04-24 02:24 | 43.10829 | -76.12441 | 430 ft | 130 kts | 85° |
| 2026-04-24 02:24 | 43.10866 | -76.11361 | 430 ft | 80 kts | 87° |
| 2026-04-24 02:24 | 43.10878 | -76.10942 | 434 ft | 29 kts | 87° |
| 2026-04-24 02:25 | 43.10886 | -76.10665 | 422 ft | 24 kts | 88° |
| 2026-04-24 02:25 | 43.10946 | -76.10566 | 420 ft | 16 kts | 4° |
| 2026-04-24 02:25 | 43.10987 | -76.10579 | 420 ft | 2 kts | 314° |
| 2026-04-24 02:25 | 43.11005 | -76.10617 | 422 ft | 7 kts | 287° |
| 2026-04-24 02:26 | 43.11016 | -76.10696 | 430 ft | 10 kts | 303° |
| 2026-04-24 02:26 | 43.11090 | -76.10722 | 420 ft | 13 kts | 356° |
| 2026-04-24 02:26 | 43.11186 | -76.10729 | 429 ft | 15 kts | 358° |
| 2026-04-24 02:26 | 43.11301 | -76.10735 | 420 ft | 18 kts | 358° |
| 2026-04-24 02:27 | 43.11431 | -76.10743 | 423 ft | 20 kts | 357° |
| 2026-04-24 02:27 | 43.11567 | -76.10755 | 422 ft | 15 kts | 342° |
| 2026-04-24 02:27 | 43.11611 | -76.10865 | 430 ft | 9 kts | 242° |
| 2026-04-24 02:27 | 43.11568 | -76.10914 | 424 ft | 6 kts | 219° |
| 2026-04-24 02:28 | 43.11541 | -76.10949 | 429 ft | 4 kts | 224° |
| 2026-04-24 02:28 | 43.11534 | -76.10958 | 429 ft | 0 kts | 225° |